LIBV

Gioia Del Colle Airport

Gioia Del Colle, Italy
TAF LIBV 161700Z 1618/1703 30005KT 9999 SCT030
Issued Valid From Valid To
Jul-16 @ 17:00 UTC
(3 hours ago)
Jul-16 @ 18:00 UTC
(2 hours ago)
Jul-17 @ 03:00 UTC
(in 7 hours)
Jul-16 @ 18:00 to Jul-17 @ 03:00
TAF LIBV 161700Z 1618/1703 30005KT 9999 SCT030
Wind Visibility Clouds
300° at 5 knots 10,000+ meters
  • Scattered at 3,000' AGL
TAF LIBV 161700Z 1618/1703 30005KT 9999 SCT030
Issued Jul-16 @ 17:00 UTC
(3 hours ago)
Valid From Jul-16 @ 18:00 UTC
(2 hours ago)
Valid To Jul-17 @ 03:00 UTC
(in 7 hours)
Jul-16 @ 18:00 - Jul-17 @ 03:00
Wind Visibility
300° at 5 knots 10,000+ meters
Clouds
  • Scattered at 3,000' AGL